createdAt,value
2022-10-10T00:00:11.789Z,63.23
2022-10-10T00:03:37.072Z,63.35
2022-10-10T00:06:40.949Z,63.41
2022-10-10T00:09:44.341Z,63.44
2022-10-10T00:12:48.211Z,63.45
2022-10-10T00:15:51.336Z,63.58
2022-10-10T00:18:54.161Z,63.75
2022-10-10T00:21:56.953Z,63.98
2022-10-10T00:24:59.837Z,64.31
2022-10-10T00:28:04.668Z,64.50
2022-10-10T00:31:09.070Z,64.67
2022-10-10T00:34:12.929Z,64.77
2022-10-10T00:37:15.908Z,64.80
2022-10-10T00:40:19.286Z,64.89
2022-10-10T00:43:24.623Z,64.88
2022-10-10T00:46:27.471Z,64.92
2022-10-10T00:49:32.031Z,64.97
2022-10-10T00:52:34.967Z,64.94
2022-10-10T00:55:38.387Z,65.06
2022-10-10T00:58:45.045Z,65.19
2022-10-10T01:01:48.239Z,65.22
2022-10-10T01:04:51.322Z,65.12
2022-10-10T01:07:54.994Z,65.22
2022-10-10T01:11:16.114Z,65.24
2022-10-10T01:14:41.715Z,65.29
2022-10-10T01:17:50.337Z,65.32
2022-10-10T01:21:03.581Z,65.33
2022-10-10T01:24:39.353Z,65.33
2022-10-10T01:27:54.232Z,65.39
2022-10-10T01:30:59.159Z,65.31
2022-10-10T01:34:08.161Z,65.43
2022-10-10T01:37:26.325Z,65.41
2022-10-10T01:40:32.057Z,65.53
2022-10-10T01:43:36.724Z,65.40
2022-10-10T01:46:39.578Z,65.30
2022-10-10T01:49:44.683Z,65.30
2022-10-10T01:52:50.820Z,65.36
2022-10-10T01:56:00.707Z,65.25
2022-10-10T01:59:06.584Z,65.37
2022-10-10T02:02:33.837Z,65.46
2022-10-10T02:05:46.553Z,65.43
2022-10-10T02:08:54.746Z,65.21
2022-10-10T02:12:00.182Z,65.34
2022-10-10T02:15:10.703Z,65.28
2022-10-10T02:18:16.521Z,65.35
2022-10-10T02:21:21.783Z,65.30
2022-10-10T02:24:25.144Z,65.29
2022-10-10T02:27:43.015Z,65.21
2022-10-10T02:30:49.490Z,65.30
2022-10-10T02:33:57.908Z,65.28
2022-10-10T02:37:05.300Z,65.48
2022-10-10T02:40:12.210Z,65.41
2022-10-10T02:43:16.120Z,65.30
2022-10-10T02:46:19.996Z,65.38
2022-10-10T02:49:27.429Z,65.25
2022-10-10T02:52:30.404Z,65.37
2022-10-10T02:55:33.245Z,65.37
2022-10-10T02:58:36.196Z,65.19
2022-10-10T03:01:39.813Z,65.35
2022-10-10T03:04:42.646Z,65.16
2022-10-10T03:07:45.475Z,65.11
2022-10-10T03:11:00.005Z,65.25
2022-10-10T03:14:03.088Z,65.18
2022-10-10T03:17:05.935Z,65.15
2022-10-10T03:20:09.209Z,65.02
2022-10-10T03:23:13.345Z,65.20
2022-10-10T03:26:16.283Z,65.14
2022-10-10T03:29:19.135Z,65.19
2022-10-10T03:32:21.977Z,65.06
2022-10-10T03:35:24.825Z,65.12
2022-10-10T03:38:27.691Z,65.14
2022-10-10T03:41:30.774Z,65.16
2022-10-10T03:44:33.689Z,65.07
2022-10-10T03:47:36.517Z,65.09
2022-10-10T03:50:39.498Z,65.09
2022-10-10T03:53:42.426Z,65.04
2022-10-10T03:56:45.878Z,64.94
2022-10-10T03:59:48.743Z,65.02
2022-10-10T04:02:53.749Z,64.87
2022-10-10T04:05:57.370Z,64.89
2022-10-10T04:09:00.488Z,64.94
2022-10-10T04:12:03.476Z,65.06
2022-10-10T04:15:06.805Z,64.98
2022-10-10T04:18:09.638Z,64.91
2022-10-10T04:21:12.540Z,64.90
2022-10-10T04:24:15.431Z,64.88
2022-10-10T04:27:18.322Z,64.96
2022-10-10T04:30:21.459Z,65.00
2022-10-10T04:33:24.337Z,64.88
2022-10-10T04:36:27.243Z,64.89
2022-10-10T04:39:30.153Z,64.96
2022-10-10T04:42:33.467Z,64.89
2022-10-10T04:45:37.682Z,64.95
2022-10-10T04:48:40.899Z,65.03
2022-10-10T04:51:44.392Z,64.91
2022-10-10T04:54:47.293Z,65.04
2022-10-10T04:57:50.181Z,65.05
2022-10-10T05:00:54.632Z,65.00
2022-10-10T05:03:57.771Z,64.97
2022-10-10T05:07:00.527Z,64.96
2022-10-10T05:10:04.249Z,64.89
2022-10-10T05:13:10.728Z,64.98
2022-10-10T05:16:13.746Z,65.07
2022-10-10T05:19:16.697Z,64.90
2022-10-10T05:22:19.490Z,65.01
2022-10-10T05:25:22.392Z,64.92
2022-10-10T05:28:25.725Z,64.99
2022-10-10T05:31:29.036Z,65.02
2022-10-10T05:34:31.977Z,65.04
2022-10-10T05:37:35.836Z,64.94
2022-10-10T05:40:41.874Z,64.97
2022-10-10T05:43:44.768Z,64.98
2022-10-10T05:46:47.526Z,65.08
2022-10-10T05:49:50.330Z,65.16
2022-10-10T05:52:53.769Z,65.21
2022-10-10T05:55:57.141Z,65.13
2022-10-10T05:58:59.946Z,65.08
2022-10-10T06:02:02.830Z,65.20
2022-10-10T06:05:06.110Z,65.18
2022-10-10T06:08:11.895Z,65.14
2022-10-10T06:11:17.261Z,65.24
2022-10-10T06:14:20.212Z,65.21
2022-10-10T06:17:23.094Z,65.27
2022-10-10T06:20:25.926Z,65.12
2022-10-10T06:23:29.152Z,65.31
2022-10-10T06:26:32.196Z,65.26
2022-10-10T06:29:35.003Z,65.17
2022-10-10T06:32:38.264Z,65.25
2022-10-10T06:35:42.624Z,65.14
2022-10-10T06:38:46.327Z,65.20
2022-10-10T06:41:49.633Z,65.21
2022-10-10T06:44:54.607Z,65.09
2022-10-10T06:47:57.467Z,65.19
2022-10-10T06:51:09.566Z,65.15
2022-10-10T06:54:12.350Z,65.09
2022-10-10T06:57:15.211Z,65.08
2022-10-10T07:00:18.466Z,65.00
2022-10-10T07:03:22.518Z,65.10
2022-10-10T07:06:26.100Z,65.13
2022-10-10T07:09:29.301Z,64.92
2022-10-10T07:12:39.511Z,64.84
2022-10-10T07:15:45.383Z,64.89
2022-10-10T07:18:48.205Z,64.78
2022-10-10T07:21:51.661Z,64.69
2022-10-10T07:24:54.415Z,64.54
2022-10-10T07:27:57.331Z,64.64
2022-10-10T07:31:02.489Z,64.45
2022-10-10T07:34:06.311Z,64.29
2022-10-10T07:37:09.101Z,64.31
2022-10-10T07:40:11.974Z,64.45
2022-10-10T07:43:14.819Z,64.18
2022-10-10T07:46:20.239Z,64.07
2022-10-10T07:49:23.104Z,64.00
2022-10-10T07:52:25.908Z,63.99
2022-10-10T07:55:28.794Z,64.09
2022-10-10T07:58:36.530Z,64.31
2022-10-10T08:01:39.528Z,64.28
2022-10-10T08:04:43.116Z,64.21
2022-10-10T08:07:45.915Z,63.94
2022-10-10T08:10:49.034Z,64.02
2022-10-10T08:13:51.875Z,64.06
2022-10-10T08:16:54.944Z,64.01
2022-10-10T08:19:57.924Z,64.14
2022-10-10T08:23:00.714Z,64.01
2022-10-10T08:26:07.290Z,63.85
2022-10-10T08:29:10.184Z,63.87
2022-10-10T08:32:13.020Z,63.72
2022-10-10T08:35:15.867Z,63.82
2022-10-10T08:38:18.874Z,63.73
2022-10-10T08:41:31.886Z,63.51
2022-10-10T08:44:43.747Z,63.40
2022-10-10T08:47:55.243Z,63.30
2022-10-10T08:51:05.998Z,63.39
2022-10-10T08:54:13.534Z,63.21
2022-10-10T08:57:26.232Z,63.03
2022-10-10T09:00:33.895Z,63.04
2022-10-10T09:03:43.288Z,62.95
2022-10-10T09:07:01.406Z,63.02
2022-10-10T09:10:30.108Z,63.07
2022-10-10T09:14:09.279Z,62.94
2022-10-10T09:17:43.088Z,63.06
2022-10-10T09:21:02.080Z,62.78
2022-10-10T09:24:13.016Z,62.74
2022-10-10T09:27:22.342Z,62.84
2022-10-10T09:30:26.045Z,63.00
2022-10-10T09:33:45.255Z,63.06
2022-10-10T09:36:48.707Z,62.99
2022-10-10T09:39:57.342Z,63.08
2022-10-10T09:43:11.718Z,62.83
2022-10-10T09:46:14.997Z,62.82
2022-10-10T09:49:19.075Z,62.61
2022-10-10T09:52:31.234Z,62.57
2022-10-10T09:55:39.366Z,62.55
2022-10-10T09:58:48.162Z,62.57
2022-10-10T10:02:02.754Z,62.44
2022-10-10T10:05:24.092Z,62.52
2022-10-10T10:08:26.846Z,62.70
2022-10-10T10:11:33.792Z,62.72
2022-10-10T10:14:38.664Z,62.54
2022-10-10T10:17:41.646Z,62.37
2022-10-10T10:20:47.232Z,62.36
2022-10-10T10:23:55.077Z,62.23
2022-10-10T10:27:16.652Z,62.02
2022-10-10T10:30:25.935Z,61.95
2022-10-10T10:33:45.443Z,61.88
2022-10-10T10:36:57.687Z,61.79
2022-10-10T10:40:22.914Z,61.31
2022-10-10T10:43:30.281Z,61.10
2022-10-10T10:46:50.444Z,60.78
2022-10-10T10:50:11.981Z,60.54
2022-10-10T10:53:29.834Z,60.33
2022-10-10T10:56:42.148Z,60.32
2022-10-10T11:00:21.172Z,59.94
2022-10-10T11:05:18.050Z,59.61
2022-10-10T11:07:24.841Z,59.51
2022-10-10T11:10:49.033Z,59.32
2022-10-10T11:13:54.479Z,59.07
2022-10-10T11:17:01.095Z,58.92
2022-10-10T11:20:17.230Z,58.98
2022-10-10T11:23:25.207Z,58.83
2022-10-10T11:26:37.195Z,58.90
2022-10-10T11:30:00.501Z,58.77
2022-10-10T11:33:14.361Z,58.63
2022-10-10T11:36:24.338Z,58.68
2022-10-10T11:39:36.690Z,58.68
2022-10-10T11:42:42.758Z,58.77
2022-10-10T11:45:53.586Z,58.77
2022-10-10T11:49:07.134Z,58.99
2022-10-10T11:52:33.987Z,58.92
2022-10-10T11:55:47.346Z,58.94
2022-10-10T11:58:58.918Z,59.10
2022-10-10T12:02:14.856Z,59.02
2022-10-10T12:05:22.596Z,58.95
2022-10-10T12:08:47.019Z,59.03
2022-10-10T12:11:59.582Z,58.99
2022-10-10T12:15:05.977Z,59.11
2022-10-10T12:18:39.483Z,59.14
2022-10-10T12:21:54.069Z,59.28
2022-10-10T12:25:35.670Z,59.22
2022-10-10T12:28:57.819Z,59.19
2022-10-10T12:32:15.866Z,59.29
2022-10-10T12:35:35.335Z,59.26
2022-10-10T12:38:38.454Z,59.11
2022-10-10T12:41:47.777Z,59.23
2022-10-10T12:44:50.938Z,59.11
2022-10-10T12:48:05.047Z,59.15
2022-10-10T12:51:21.475Z,59.01
2022-10-10T12:54:27.808Z,58.99
2022-10-10T12:57:35.936Z,59.06
2022-10-10T13:00:45.180Z,59.21
2022-10-10T13:03:50.854Z,59.13
2022-10-10T13:06:57.601Z,59.15
2022-10-10T13:10:08.083Z,59.34
2022-10-10T13:13:19.643Z,59.21
2022-10-10T13:16:33.424Z,59.25
2022-10-10T13:19:41.468Z,59.43
2022-10-10T13:22:47.167Z,59.51
2022-10-10T13:25:50.369Z,59.69
2022-10-10T13:28:56.947Z,59.84
2022-10-10T13:32:03.859Z,59.96
2022-10-10T13:35:32.390Z,60.02
2022-10-10T13:38:35.711Z,60.01
2022-10-10T13:41:38.537Z,60.09
2022-10-10T13:44:51.107Z,60.22
2022-10-10T13:48:12.760Z,60.09
2022-10-10T13:51:15.674Z,60.13
2022-10-10T13:54:47.431Z,60.27
2022-10-10T13:57:51.451Z,60.39
2022-10-10T14:00:56.945Z,60.38
2022-10-10T14:04:27.508Z,60.35
2022-10-10T14:07:30.938Z,60.38
2022-10-10T14:10:36.152Z,60.37
2022-10-10T14:13:39.426Z,60.43
2022-10-10T14:16:42.781Z,60.44
2022-10-10T14:19:47.607Z,60.42
2022-10-10T14:22:51.251Z,60.43
2022-10-10T14:25:54.149Z,60.53
2022-10-10T14:28:56.991Z,60.54
2022-10-10T14:31:59.821Z,60.62
2022-10-10T14:35:02.610Z,60.69
2022-10-10T14:38:05.669Z,60.83
2022-10-10T14:41:10.532Z,60.80
2022-10-10T14:44:13.899Z,60.80
2022-10-10T14:47:18.550Z,60.94
2022-10-10T14:50:28.219Z,61.14
2022-10-10T14:53:31.003Z,61.18
2022-10-10T14:57:09.527Z,61.22
2022-10-10T14:59:56.640Z,61.25
2022-10-10T15:02:59.413Z,61.29
2022-10-10T15:06:02.356Z,61.42
2022-10-10T15:09:11.910Z,61.46
2022-10-10T15:12:28.261Z,61.43
2022-10-10T15:15:31.118Z,61.44
2022-10-10T15:18:53.598Z,61.45
2022-10-10T15:21:56.802Z,61.48
2022-10-10T15:25:00.075Z,61.56
2022-10-10T15:28:03.575Z,61.63
2022-10-10T15:31:06.455Z,61.71
2022-10-10T15:34:09.338Z,61.80
2022-10-10T15:37:12.171Z,61.94
2022-10-10T15:40:19.875Z,62.04
2022-10-10T15:43:22.765Z,62.14
2022-10-10T15:46:27.385Z,62.07
2022-10-10T15:49:30.294Z,62.15
2022-10-10T15:52:33.151Z,62.16
2022-10-10T15:55:45.948Z,62.24
2022-10-10T15:58:48.729Z,62.24
2022-10-10T16:01:51.603Z,62.12
2022-10-10T16:04:54.508Z,62.17
2022-10-10T16:07:57.271Z,62.04
2022-10-10T16:11:05.640Z,62.01
2022-10-10T16:14:09.526Z,62.14
2022-10-10T16:17:12.294Z,62.11
2022-10-10T16:20:15.224Z,62.26
2022-10-10T16:23:18.022Z,62.33
2022-10-10T16:26:24.150Z,62.25
2022-10-10T16:29:26.977Z,62.10
2022-10-10T16:32:29.762Z,62.01
2022-10-10T16:35:37.426Z,62.23
2022-10-10T16:38:40.889Z,62.20
2022-10-10T16:41:48.712Z,62.35
2022-10-10T16:44:52.147Z,62.44
2022-10-10T16:47:54.930Z,62.39
2022-10-10T16:51:03.602Z,62.42
2022-10-10T16:54:07.412Z,62.41
2022-10-10T16:57:12.029Z,62.59
2022-10-10T17:00:14.896Z,62.54
2022-10-10T17:03:17.735Z,62.55
2022-10-10T17:06:22.525Z,62.64
2022-10-10T17:09:25.343Z,62.63
2022-10-10T17:12:28.168Z,62.47
2022-10-10T17:15:31.002Z,62.64
2022-10-10T17:18:35.417Z,62.70
2022-10-10T17:21:38.201Z,62.71
2022-10-10T17:24:41.029Z,62.65
2022-10-10T17:27:43.813Z,62.75
2022-10-10T17:30:49.981Z,62.81
2022-10-10T17:33:54.512Z,62.77
2022-10-10T17:36:57.725Z,62.83
2022-10-10T17:40:00.723Z,62.95
2022-10-10T17:43:04.850Z,63.20
2022-10-10T17:46:36.775Z,63.98
2022-10-10T17:49:46.252Z,63.17
2022-10-10T17:52:49.329Z,62.99
2022-10-10T17:55:52.383Z,62.87
2022-10-10T17:58:55.277Z,62.80
2022-10-10T18:01:58.146Z,62.69
2022-10-10T18:05:00.961Z,62.77
2022-10-10T18:08:05.783Z,62.87
2022-10-10T18:11:17.124Z,62.79
2022-10-10T18:14:21.944Z,62.78
2022-10-10T18:17:25.192Z,62.74
2022-10-10T18:20:28.412Z,62.85
2022-10-10T18:23:32.501Z,62.81
2022-10-10T18:26:36.322Z,62.67
2022-10-10T18:29:39.670Z,62.62
2022-10-10T18:32:42.690Z,62.69
2022-10-10T18:35:45.552Z,62.78
2022-10-10T18:38:49.078Z,62.68
2022-10-10T18:41:51.888Z,62.78
2022-10-10T18:44:54.661Z,62.84
2022-10-10T18:47:57.529Z,62.95
2022-10-10T18:51:06.361Z,62.89
2022-10-10T18:54:13.610Z,62.97
2022-10-10T18:57:16.837Z,63.01
2022-10-10T19:00:19.680Z,63.00
2022-10-10T19:03:22.692Z,62.91
2022-10-10T19:06:26.345Z,63.01
2022-10-10T19:09:29.732Z,63.21
2022-10-10T19:12:32.617Z,63.24
2022-10-10T19:15:35.580Z,63.35
2022-10-10T19:18:38.425Z,63.36
2022-10-10T19:21:41.272Z,63.41
2022-10-10T19:24:44.326Z,63.40
2022-10-10T19:27:47.778Z,63.38
2022-10-10T19:30:50.605Z,63.51
2022-10-10T19:33:53.464Z,63.36
2022-10-10T19:36:56.665Z,63.43
2022-10-10T19:39:59.469Z,63.58
2022-10-10T19:43:02.491Z,63.50
2022-10-10T19:46:07.280Z,63.73
2022-10-10T19:49:11.286Z,63.61
2022-10-10T19:52:14.081Z,63.75
2022-10-10T19:55:18.941Z,63.71
2022-10-10T19:58:21.955Z,63.71
2022-10-10T20:01:29.281Z,63.78
2022-10-10T20:04:32.697Z,64.04
2022-10-10T20:07:35.582Z,64.16
2022-10-10T20:10:42.966Z,64.12
2022-10-10T20:13:46.503Z,64.21
2022-10-10T20:16:49.460Z,64.41
2022-10-10T20:19:52.349Z,64.39
2022-10-10T20:22:55.208Z,64.60
2022-10-10T20:25:58.077Z,64.65
2022-10-10T20:29:01.559Z,64.81
2022-10-10T20:32:04.567Z,64.90
2022-10-10T20:35:07.814Z,64.97
2022-10-10T20:38:12.158Z,65.07
2022-10-10T20:41:14.975Z,65.06
2022-10-10T20:44:17.852Z,65.13
2022-10-10T20:47:20.888Z,65.21
2022-10-10T20:50:23.694Z,65.25
2022-10-10T20:53:26.448Z,65.44
2022-10-10T20:56:31.205Z,65.34
2022-10-10T20:59:34.144Z,65.41
2022-10-10T21:02:36.954Z,65.44
2022-10-10T21:05:39.792Z,65.23
2022-10-10T21:08:43.258Z,65.40
2022-10-10T21:11:50.616Z,65.23
2022-10-10T21:14:53.910Z,65.28
2022-10-10T21:17:56.995Z,65.18
2022-10-10T21:21:01.624Z,65.17
2022-10-10T21:24:06.952Z,65.01
2022-10-10T21:27:09.750Z,65.13
2022-10-10T21:30:12.562Z,64.94
2022-10-10T21:33:15.635Z,64.97
2022-10-10T21:36:20.124Z,64.98
2022-10-10T21:39:23.043Z,64.82
2022-10-10T21:42:25.877Z,64.76
2022-10-10T21:45:28.766Z,64.78
2022-10-10T21:48:32.283Z,64.72
2022-10-10T21:51:38.469Z,64.61
2022-10-10T21:54:41.411Z,64.57
2022-10-10T21:57:44.270Z,64.50
2022-10-10T22:00:47.155Z,64.58
2022-10-10T22:03:51.984Z,64.55
2022-10-10T22:06:54.942Z,64.50
2022-10-10T22:09:58.468Z,64.48
2022-10-10T22:13:02.569Z,64.41
2022-10-10T22:16:06.849Z,64.45
2022-10-10T22:19:10.394Z,64.32
2022-10-10T22:22:13.237Z,64.31
2022-10-10T22:25:18.618Z,64.33
2022-10-10T22:28:21.630Z,64.26
2022-10-10T22:31:24.573Z,64.29
2022-10-10T22:34:27.776Z,64.19
2022-10-10T22:37:30.567Z,64.09
2022-10-10T22:40:34.181Z,64.09
2022-10-10T22:43:37.400Z,64.09
2022-10-10T22:46:40.509Z,64.13
2022-10-10T22:49:43.399Z,64.03
2022-10-10T22:52:46.554Z,64.11
2022-10-10T22:55:49.360Z,64.07
2022-10-10T22:58:52.192Z,63.91
2022-10-10T23:01:55.260Z,63.84
2022-10-10T23:04:59.548Z,63.93
2022-10-10T23:08:02.385Z,63.78
2022-10-10T23:11:05.256Z,63.89
2022-10-10T23:14:08.081Z,63.75
2022-10-10T23:17:10.931Z,63.81
2022-10-10T23:20:13.788Z,63.87
2022-10-10T23:23:18.186Z,63.76
2022-10-10T23:26:21.113Z,63.76
2022-10-10T23:29:23.898Z,63.70
2022-10-10T23:32:29.393Z,63.64
2022-10-10T23:35:32.268Z,63.63
2022-10-10T23:38:35.108Z,63.56
2022-10-10T23:41:37.970Z,63.58
2022-10-10T23:44:40.863Z,63.56
2022-10-10T23:47:44.764Z,63.50
2022-10-10T23:50:47.595Z,63.45
2022-10-10T23:53:50.465Z,63.56
2022-10-10T23:56:53.431Z,63.44
2022-10-10T23:59:56.258Z,63.46
